Des Moines, Iowa
Current Conditions -  °F | °C
As of 8:54 PM on Sunday 21 Dec 2014 (Local Time) from KDSM Reporting Station
Overcast Overcast  
Wind Chill:   Ceiling: 1100
Heat Index:   Visibility: 10mi
Dew Point:   Wind: 13mph
Humidity: 82%   Direction: 170°S
Pressure: 29.78"   Gusts: NA
Location:  41.59°N, 93.61°W
Report Text: KDSM 220254Z 17011KT 10SM OVC011 06/03 A2978 RMK AO2 DZE53 SLP090 P0000 60000 T00610033 57010
Loading
Personal Weather Stations






























Interactive Weather Map New forecast layout! Learn more

10-Day Weather Forecast

Advertisements
Track Severe Weather on mobile